createdAt,value
2017-02-13T00:00:22.434Z,1032.13
2017-02-13T00:01:31.828Z,1032.12
2017-02-13T00:02:40.921Z,1032.13
2017-02-13T00:03:49.900Z,1032.11
2017-02-13T00:04:59.001Z,1032.12
2017-02-13T00:06:08.093Z,1032.07
2017-02-13T00:07:17.071Z,1032.08
2017-02-13T00:08:26.221Z,1032.05
2017-02-13T00:09:35.385Z,1032.12
2017-02-13T00:10:44.462Z,1032.13
2017-02-13T00:11:53.523Z,1032.17
2017-02-13T00:13:02.498Z,1032.15
2017-02-13T00:14:11.475Z,1032.15
2017-02-13T00:15:20.467Z,1032.15
2017-02-13T00:16:29.567Z,1032.15
2017-02-13T00:17:38.540Z,1032.13
2017-02-13T00:18:47.925Z,1032.14
2017-02-13T00:19:56.901Z,1032.16
2017-02-13T00:21:05.875Z,1032.18
2017-02-13T00:22:14.843Z,1032.15
2017-02-13T00:23:23.815Z,1032.13
2017-02-13T00:24:32.889Z,1032.18
2017-02-13T00:25:41.860Z,1032.11
2017-02-13T00:26:50.862Z,1032.13
2017-02-13T00:27:59.868Z,1032.13
2017-02-13T00:29:08.850Z,1032.13
2017-02-13T00:30:17.835Z,1032.13
2017-02-13T00:31:26.809Z,1032.16
2017-02-13T00:32:35.778Z,1032.16
2017-02-13T00:33:44.740Z,1032.23
2017-02-13T00:34:53.719Z,1032.26
2017-02-13T00:36:02.731Z,1032.28
2017-02-13T00:37:11.701Z,1032.27
2017-02-13T00:38:20.684Z,1032.26
2017-02-13T00:39:29.667Z,1032.31
2017-02-13T00:40:38.641Z,1032.32
2017-02-13T00:41:48.025Z,1032.35
2017-02-13T00:42:57.007Z,1032.43
2017-02-13T00:44:05.992Z,1032.45
2017-02-13T00:45:15.131Z,1032.39
2017-02-13T00:46:24.215Z,1032.41
2017-02-13T00:47:33.182Z,1032.37
2017-02-13T00:48:42.169Z,1032.4
2017-02-13T00:49:51.220Z,1032.42
2017-02-13T00:51:00.190Z,1032.39
2017-02-13T00:52:09.183Z,1032.4
2017-02-13T00:53:18.152Z,1032.45
2017-02-13T00:54:27.150Z,1032.46
2017-02-13T00:55:36.219Z,1032.45
2017-02-13T00:56:45.315Z,1032.49
2017-02-13T00:57:54.696Z,1032.49
2017-02-13T00:59:03.745Z,1032.5
2017-02-13T01:00:12.718Z,1032.47
2017-02-13T01:01:21.707Z,1032.54
2017-02-13T01:02:30.694Z,1032.52
2017-02-13T01:03:39.788Z,1032.51
2017-02-13T01:04:48.790Z,1032.54
2017-02-13T01:05:57.767Z,1032.51
2017-02-13T01:07:06.757Z,1032.57
2017-02-13T01:08:15.725Z,1032.55
2017-02-13T01:09:24.704Z,1032.58
2017-02-13T01:10:34.102Z,1032.6
2017-02-13T01:11:43.075Z,1032.61
2017-02-13T01:12:52.053Z,1032.64
2017-02-13T01:14:01.040Z,1032.62
2017-02-13T01:15:10.610Z,1032.65
2017-02-13T01:16:19.597Z,1032.66
2017-02-13T01:17:28.665Z,1032.63
2017-02-13T01:18:37.670Z,1032.64
2017-02-13T01:19:46.659Z,1032.65
2017-02-13T01:20:55.627Z,1032.65
2017-02-13T01:22:04.713Z,1032.65
2017-02-13T01:23:13.863Z,1032.7
2017-02-13T01:24:22.841Z,1032.7
2017-02-13T01:25:31.837Z,1032.7
2017-02-13T01:26:40.808Z,1032.68
2017-02-13T01:27:49.798Z,1032.68
2017-02-13T01:28:58.860Z,1032.69
2017-02-13T01:30:07.917Z,1032.72
2017-02-13T01:31:16.915Z,1032.74
2017-02-13T01:32:25.902Z,1032.75
2017-02-13T01:33:34.877Z,1032.75
2017-02-13T01:34:43.966Z,1032.72
2017-02-13T01:35:53.052Z,1032.7
2017-02-13T01:37:02.436Z,1032.76
2017-02-13T01:38:11.407Z,1032.79
2017-02-13T01:39:20.392Z,1032.77
2017-02-13T01:40:29.362Z,1032.71
2017-02-13T01:41:38.358Z,1032.7
2017-02-13T01:42:47.329Z,1032.68
2017-02-13T01:43:56.333Z,1032.66
2017-02-13T01:45:05.390Z,1032.65
2017-02-13T01:46:14.367Z,1032.63
2017-02-13T01:47:23.356Z,1032.66
2017-02-13T01:48:32.345Z,1032.57
2017-02-13T01:49:41.414Z,1032.66
2017-02-13T01:50:50.409Z,1032.59
2017-02-13T01:51:59.389Z,1032.59
2017-02-13T01:53:08.387Z,1032.58
2017-02-13T01:54:17.479Z,1032.57
2017-02-13T01:55:26.866Z,1032.6
2017-02-13T01:56:35.860Z,1032.54
2017-02-13T01:57:44.834Z,1032.58
2017-02-13T01:58:53.811Z,1032.52
2017-02-13T02:00:02.799Z,1032.54
2017-02-13T02:01:11.785Z,1032.51
2017-02-13T02:02:20.846Z,1032.53
2017-02-13T02:03:29.844Z,1032.55
2017-02-13T02:04:38.820Z,1032.59
2017-02-13T02:05:47.813Z,1032.54
2017-02-13T02:06:56.883Z,1032.6
2017-02-13T02:08:05.854Z,1032.64
2017-02-13T02:09:14.843Z,1032.65
2017-02-13T02:10:23.835Z,1032.6
2017-02-13T02:11:32.804Z,1032.57
2017-02-13T02:12:41.784Z,1032.56
2017-02-13T02:13:50.776Z,1032.58
2017-02-13T02:15:00.167Z,1032.6
2017-02-13T02:16:09.155Z,1032.52
2017-02-13T02:17:18.124Z,1032.61
2017-02-13T02:18:27.093Z,1032.6
2017-02-13T02:19:36.659Z,1032.61
2017-02-13T02:20:46.905Z,1032.62
2017-02-13T02:21:56.239Z,1032.64
2017-02-13T02:23:05.577Z,1032.67
2017-02-13T02:24:15.313Z,1032.66
2017-02-13T02:25:25.045Z,1032.67
2017-02-13T02:26:35.675Z,1032.68
2017-02-13T02:27:46.594Z,1032.7
2017-02-13T02:28:56.557Z,1032.7
2017-02-13T02:30:06.337Z,1032.76
2017-02-13T02:31:15.871Z,1032.75
2017-02-13T02:32:24.836Z,1032.78
2017-02-13T02:33:34.557Z,1032.82
2017-02-13T02:34:43.549Z,1032.84
2017-02-13T02:35:52.607Z,1032.75
2017-02-13T02:37:01.771Z,1032.76
2017-02-13T02:38:10.771Z,1032.75
2017-02-13T02:39:19.822Z,1032.71
2017-02-13T02:40:28.790Z,1032.65
2017-02-13T02:41:37.863Z,1032.66
2017-02-13T02:42:47.273Z,1032.68
2017-02-13T02:43:56.259Z,1032.7
2017-02-13T02:45:05.274Z,1032.71
2017-02-13T02:46:14.257Z,1032.71
2017-02-13T02:47:23.223Z,1032.71
2017-02-13T02:48:32.208Z,1032.69
2017-02-13T02:49:41.186Z,1032.72
2017-02-13T02:50:50.241Z,1032.71
2017-02-13T02:51:59.224Z,1032.72
2017-02-13T02:53:08.298Z,1032.7
2017-02-13T02:54:17.278Z,1032.69
2017-02-13T02:55:26.279Z,1032.74
2017-02-13T02:56:35.272Z,1032.71
2017-02-13T02:57:44.256Z,1032.71
2017-02-13T02:58:53.325Z,1032.7
2017-02-13T03:00:02.320Z,1032.72
2017-02-13T03:01:11.326Z,1032.68
2017-02-13T03:02:20.302Z,1032.73
2017-02-13T03:03:29.318Z,1032.71
2017-02-13T03:04:38.299Z,1032.69
2017-02-13T03:05:47.353Z,1032.74
2017-02-13T03:06:56.516Z,1032.69
2017-02-13T03:08:05.512Z,1032.7
2017-02-13T03:09:14.578Z,1032.68
2017-02-13T03:10:23.545Z,1032.69
2017-02-13T03:11:32.684Z,1032.67
2017-02-13T03:12:41.655Z,1032.66
2017-02-13T03:13:50.627Z,1032.67
2017-02-13T03:14:59.623Z,1032.67
2017-02-13T03:16:10.732Z,1032.63
2017-02-13T03:17:20.229Z,1032.65
2017-02-13T03:18:31.112Z,1032.61
2017-02-13T03:19:41.085Z,1032.65
2017-02-13T03:20:50.230Z,1032.65
2017-02-13T03:22:00.303Z,1032.7
2017-02-13T03:23:10.638Z,1032.64
2017-02-13T03:24:20.900Z,1032.69
2017-02-13T03:25:30.073Z,1032.7
2017-02-13T03:26:39.499Z,1032.62
2017-02-13T03:27:48.467Z,1032.61
2017-02-13T03:28:58.523Z,1032.62
2017-02-13T03:30:07.726Z,1032.56
2017-02-13T03:31:18.759Z,1032.53
2017-02-13T03:32:27.997Z,1032.48
2017-02-13T03:33:38.243Z,1032.5
2017-02-13T03:34:48.730Z,1032.58
2017-02-13T03:35:59.236Z,1032.58
2017-02-13T03:37:10.978Z,1032.57
2017-02-13T03:38:20.391Z,1032.56
2017-02-13T03:39:30.676Z,1032.56
2017-02-13T03:40:41.059Z,1032.57
2017-02-13T03:41:50.853Z,1032.58
2017-02-13T03:42:59.907Z,1032.63
2017-02-13T03:44:10.635Z,1032.62
2017-02-13T03:45:20.817Z,1032.63
2017-02-13T03:46:30.030Z,1032.64
2017-02-13T03:47:39.652Z,1032.66
2017-02-13T03:48:49.199Z,1032.67
2017-02-13T03:49:58.452Z,1032.71
2017-02-13T03:51:08.341Z,1032.64
2017-02-13T03:52:18.745Z,1032.66
2017-02-13T03:53:27.809Z,1032.6
2017-02-13T03:54:38.250Z,1032.61
2017-02-13T03:55:48.489Z,1032.64
2017-02-13T03:56:57.510Z,1032.63
2017-02-13T03:58:07.657Z,1032.64
2017-02-13T03:59:17.831Z,1032.67
2017-02-13T04:00:28.379Z,1032.67
2017-02-13T04:01:37.704Z,1032.63
2017-02-13T04:02:47.392Z,1032.67
2017-02-13T04:03:58.325Z,1032.64
2017-02-13T04:05:07.910Z,1032.62
2017-02-13T04:06:17.666Z,1032.61
2017-02-13T04:07:27.110Z,1032.67
2017-02-13T04:08:37.001Z,1032.67
2017-02-13T04:09:45.981Z,1032.7
2017-02-13T04:10:55.913Z,1032.68
2017-02-13T04:12:04.978Z,1032.62
2017-02-13T04:13:14.928Z,1032.58
2017-02-13T04:14:23.890Z,1032.53
2017-02-13T04:15:34.466Z,1032.54
2017-02-13T04:16:44.452Z,1032.52
2017-02-13T04:17:54.582Z,1032.5
2017-02-13T04:19:03.651Z,1032.51
2017-02-13T04:20:13.576Z,1032.51
2017-02-13T04:21:22.647Z,1032.53
2017-02-13T04:22:32.214Z,1032.6
2017-02-13T04:23:41.235Z,1032.47
2017-02-13T04:24:52.894Z,1032.53
2017-02-13T04:26:01.973Z,1032.56
2017-02-13T04:27:12.123Z,1032.56
2017-02-13T04:28:22.526Z,1032.53
2017-02-13T04:29:31.654Z,1032.51
2017-02-13T04:30:40.982Z,1032.52
2017-02-13T04:31:49.954Z,1032.51
2017-02-13T04:32:59.600Z,1032.53
2017-02-13T04:34:08.580Z,1032.49
2017-02-13T04:35:18.319Z,1032.54
2017-02-13T04:36:27.410Z,1032.58
2017-02-13T04:37:36.992Z,1032.63
2017-02-13T04:38:46.148Z,1032.61
2017-02-13T04:39:56.265Z,1032.61
2017-02-13T04:41:05.243Z,1032.66
2017-02-13T04:42:15.485Z,1032.64
2017-02-13T04:43:25.751Z,1032.7
2017-02-13T04:44:34.872Z,1032.67
2017-02-13T04:45:44.713Z,1032.71
2017-02-13T04:46:54.811Z,1032.75
2017-02-13T04:48:04.111Z,1032.81
2017-02-13T04:49:13.933Z,1032.84
2017-02-13T04:50:23.090Z,1032.83
2017-02-13T04:51:32.379Z,1032.84
2017-02-13T04:52:41.366Z,1032.85
2017-02-13T04:53:52.759Z,1032.86
2017-02-13T04:55:02.722Z,1032.9
2017-02-13T04:56:12.606Z,1032.87
2017-02-13T04:57:22.554Z,1032.92
2017-02-13T04:58:31.622Z,1032.86
2017-02-13T04:59:41.650Z,1032.8
2017-02-13T05:00:50.709Z,1032.83
2017-02-13T05:02:00.528Z,1032.88
2017-02-13T05:03:10.407Z,1032.85
2017-02-13T05:04:19.409Z,1032.92
2017-02-13T05:05:29.665Z,1032.91
2017-02-13T05:06:38.629Z,1032.95
2017-02-13T05:07:49.397Z,1032.92
2017-02-13T05:09:01.189Z,1032.92
2017-02-13T05:10:11.062Z,1032.87
2017-02-13T05:11:20.443Z,1032.82
2017-02-13T05:12:30.305Z,1032.8
2017-02-13T05:13:39.287Z,1032.82
2017-02-13T05:14:49.190Z,1032.86
2017-02-13T05:15:58.163Z,1032.85
2017-02-13T05:17:08.553Z,1032.88
2017-02-13T05:18:18.758Z,1032.87
2017-02-13T05:19:29.124Z,1032.9
2017-02-13T05:20:38.216Z,1032.93
2017-02-13T05:21:49.515Z,1032.93
2017-02-13T05:22:58.574Z,1032.91
2017-02-13T05:24:08.686Z,1032.94
2017-02-13T05:25:18.157Z,1032.96
2017-02-13T05:26:27.360Z,1032.95
2017-02-13T05:27:36.355Z,1032.95
2017-02-13T05:28:46.686Z,1032.91
2017-02-13T05:29:56.405Z,1032.92
2017-02-13T05:31:05.682Z,1032.9
2017-02-13T05:32:15.997Z,1032.88
2017-02-13T05:33:26.175Z,1032.91
2017-02-13T05:34:36.535Z,1032.91
2017-02-13T05:35:45.513Z,1032.96
2017-02-13T05:36:55.168Z,1032.94
2017-02-13T05:38:04.134Z,1032.92
2017-02-13T05:39:15.737Z,1032.99
2017-02-13T05:40:24.905Z,1033
2017-02-13T05:41:35.575Z,1032.99
2017-02-13T05:42:46.071Z,1032.98
2017-02-13T05:43:55.713Z,1033
2017-02-13T05:45:04.785Z,1033
2017-02-13T05:46:15.602Z,1032.96
2017-02-13T05:47:24.705Z,1032.95
2017-02-13T05:48:33.687Z,1033
2017-02-13T05:49:43.193Z,1033
2017-02-13T05:50:52.381Z,1033.08
2017-02-13T05:52:01.349Z,1033
2017-02-13T05:53:11.365Z,1033
2017-02-13T05:54:21.037Z,1032.99
2017-02-13T05:55:30.406Z,1032.97
2017-02-13T05:56:40.589Z,1032.96
2017-02-13T05:57:49.585Z,1032.97
2017-02-13T05:58:59.014Z,1032.95
2017-02-13T06:00:08.072Z,1032.97
2017-02-13T06:01:18.263Z,1032.97
2017-02-13T06:02:27.773Z,1032.92
2017-02-13T06:03:37.675Z,1033
2017-02-13T06:04:48.719Z,1032.96
2017-02-13T06:05:58.807Z,1032.95
2017-02-13T06:07:08.910Z,1032.96
2017-02-13T06:08:19.362Z,1032.99
2017-02-13T06:09:30.717Z,1033.04
2017-02-13T06:10:39.692Z,1033.05
2017-02-13T06:11:49.718Z,1033
2017-02-13T06:12:58.703Z,1033.02
2017-02-13T06:14:09.493Z,1032.99
2017-02-13T06:15:19.852Z,1032.9
2017-02-13T06:16:30.261Z,1032.88
2017-02-13T06:17:40.641Z,1032.86
2017-02-13T06:18:50.075Z,1032.83
2017-02-13T06:19:59.472Z,1032.8
2017-02-13T06:21:10.041Z,1032.83
2017-02-13T06:22:20.259Z,1032.82
2017-02-13T06:23:30.509Z,1032.85
2017-02-13T06:24:39.513Z,1032.9
2017-02-13T06:25:48.485Z,1032.88
2017-02-13T06:26:57.466Z,1032.93
2017-02-13T06:28:06.446Z,1032.95
2017-02-13T06:29:15.426Z,1032.93
2017-02-13T06:30:24.499Z,1032.95
2017-02-13T06:31:33.474Z,1032.93
2017-02-13T06:32:42.461Z,1032.95
2017-02-13T06:33:51.448Z,1032.97
2017-02-13T06:35:00.418Z,1032.94
2017-02-13T06:36:09.399Z,1032.94
2017-02-13T06:37:18.377Z,1032.91
2017-02-13T06:38:27.350Z,1032.97
2017-02-13T06:39:36.435Z,1032.96
2017-02-13T06:40:45.422Z,1033.02
2017-02-13T06:41:54.396Z,1032.97
2017-02-13T06:43:03.477Z,1032.96
2017-02-13T06:44:12.534Z,1032.96
2017-02-13T06:45:21.528Z,1033
2017-02-13T06:46:30.520Z,1032.98
2017-02-13T06:47:39.489Z,1032.97
2017-02-13T06:48:48.490Z,1032.98
2017-02-13T06:49:57.556Z,1032.96
2017-02-13T06:51:06.538Z,1032.96
2017-02-13T06:52:15.922Z,1032.94
2017-02-13T06:53:24.896Z,1032.94
2017-02-13T06:54:33.900Z,1032.96
2017-02-13T06:55:42.875Z,1032.98
2017-02-13T06:56:51.937Z,1033
2017-02-13T06:58:00.919Z,1032.98
2017-02-13T06:59:09.912Z,1033.03
2017-02-13T07:00:18.997Z,1033.03
2017-02-13T07:01:28.075Z,1033.03
2017-02-13T07:02:37.073Z,1033.05
2017-02-13T07:03:46.043Z,1033.05
2017-02-13T07:04:55.011Z,1033.11
2017-02-13T07:06:04.408Z,1033.12
2017-02-13T07:07:13.373Z,1033.1
2017-02-13T07:08:22.771Z,1033.13
2017-02-13T07:09:31.755Z,1033.05
2017-02-13T07:10:40.814Z,1033.08
2017-02-13T07:11:49.876Z,1033.05
2017-02-13T07:12:58.885Z,1033.07
2017-02-13T07:14:08.052Z,1033.09
2017-02-13T07:15:17.033Z,1033.1
2017-02-13T07:16:26.013Z,1033.09
2017-02-13T07:17:35.070Z,1033.12
2017-02-13T07:18:44.152Z,1033.14
2017-02-13T07:19:53.130Z,1033.16
2017-02-13T07:21:02.186Z,1033.15
2017-02-13T07:22:11.157Z,1033.12
2017-02-13T07:23:20.158Z,1033.14
2017-02-13T07:24:29.130Z,1033.13
2017-02-13T07:25:38.105Z,1033.06
2017-02-13T07:26:47.189Z,1033.12
2017-02-13T07:27:56.184Z,1033.08
2017-02-13T07:29:05.161Z,1033.17
2017-02-13T07:30:14.142Z,1033.17
2017-02-13T07:31:23.121Z,1033.15
2017-02-13T07:32:32.185Z,1033.16
2017-02-13T07:33:41.176Z,1033.17
2017-02-13T07:34:50.159Z,1033.14
2017-02-13T07:35:59.319Z,1033.22
2017-02-13T07:37:08.315Z,1033.17
2017-02-13T07:38:17.305Z,1033.19
2017-02-13T07:39:26.288Z,1033.2
2017-02-13T07:40:35.266Z,1033.17
2017-02-13T07:41:44.653Z,1033.17
2017-02-13T07:42:53.629Z,1033.12
2017-02-13T07:44:02.700Z,1033.17
2017-02-13T07:45:11.678Z,1033.18
2017-02-13T07:46:20.672Z,1033.17
2017-02-13T07:47:29.729Z,1033.13
2017-02-13T07:48:38.715Z,1033.14
2017-02-13T07:49:47.783Z,1033.16
2017-02-13T07:50:56.781Z,1033.17
2017-02-13T07:52:05.757Z,1033.18
2017-02-13T07:53:14.812Z,1033.18
2017-02-13T07:54:23.782Z,1033.16
2017-02-13T07:55:32.793Z,1033.21
2017-02-13T07:56:41.859Z,1033.21
2017-02-13T07:57:50.847Z,1033.22
2017-02-13T07:59:00.232Z,1033.13
2017-02-13T08:00:09.219Z,1033.17
2017-02-13T08:01:18.185Z,1033.22
2017-02-13T08:02:27.162Z,1033.16
2017-02-13T08:03:36.172Z,1033.21
2017-02-13T08:04:45.154Z,1033.2
2017-02-13T08:05:54.225Z,1033.18
2017-02-13T08:07:03.216Z,1033.13
2017-02-13T08:08:12.217Z,1033.13
2017-02-13T08:09:21.183Z,1033.13
2017-02-13T08:10:30.151Z,1033.09
2017-02-13T08:11:39.150Z,1033.09
2017-02-13T08:12:48.128Z,1033.06
2017-02-13T08:13:57.139Z,1033.06
2017-02-13T08:15:06.517Z,1033.1
2017-02-13T08:16:15.490Z,1033.07
2017-02-13T08:17:24.464Z,1033.05
2017-02-13T08:18:33.445Z,1033.01
2017-02-13T08:19:42.441Z,1033.04
2017-02-13T08:20:51.851Z,1033.03
2017-02-13T08:22:00.915Z,1033.04
2017-02-13T08:23:10.299Z,1033.04
2017-02-13T08:24:19.346Z,1033.07
2017-02-13T08:25:28.338Z,1033.06
2017-02-13T08:26:37.338Z,1033.11
2017-02-13T08:27:46.344Z,1033.12
2017-02-13T08:28:55.319Z,1033.14
2017-02-13T08:30:04.295Z,1033.19
2017-02-13T08:31:13.290Z,1033.19
2017-02-13T08:32:22.277Z,1033.29
2017-02-13T08:33:31.467Z,1033.28
2017-02-13T08:34:40.453Z,1033.28
2017-02-13T08:35:49.437Z,1033.27
2017-02-13T08:36:58.424Z,1033.25
2017-02-13T08:38:07.407Z,1033.33
2017-02-13T08:39:16.488Z,1033.31
2017-02-13T08:40:25.463Z,1033.36
2017-02-13T08:41:34.431Z,1033.37
2017-02-13T08:42:43.487Z,1033.41
2017-02-13T08:43:52.966Z,1033.42
2017-02-13T08:45:01.950Z,1033.48
2017-02-13T08:46:10.931Z,1033.47
2017-02-13T08:47:19.899Z,1033.54
2017-02-13T08:48:29.063Z,1033.52
2017-02-13T08:49:38.450Z,1033.5
2017-02-13T08:50:47.530Z,1033.51
2017-02-13T08:51:56.512Z,1033.51
2017-02-13T08:53:05.522Z,1033.52
2017-02-13T08:54:14.943Z,1033.51
2017-02-13T08:55:23.917Z,1033.5
2017-02-13T08:56:32.897Z,1033.56
2017-02-13T08:57:41.869Z,1033.49
2017-02-13T08:58:50.837Z,1033.42
2017-02-13T08:59:59.829Z,1033.46
2017-02-13T09:01:08.820Z,1033.48
2017-02-13T09:02:17.808Z,1033.51
2017-02-13T09:03:26.789Z,1033.54
2017-02-13T09:04:35.770Z,1033.53
2017-02-13T09:05:44.777Z,1033.58
2017-02-13T09:06:53.754Z,1033.53
2017-02-13T09:08:02.734Z,1033.53
2017-02-13T09:09:11.803Z,1033.48
2017-02-13T09:10:20.781Z,1033.52
2017-02-13T09:11:29.856Z,1033.55
2017-02-13T09:12:38.944Z,1033.55
2017-02-13T09:13:47.947Z,1033.57
2017-02-13T09:14:56.948Z,1033.55
2017-02-13T09:16:05.938Z,1033.57
2017-02-13T09:17:14.998Z,1033.54
2017-02-13T09:18:23.978Z,1033.55
2017-02-13T09:19:32.961Z,1033.55
2017-02-13T09:20:41.977Z,1033.53
2017-02-13T09:21:50.971Z,1033.53
2017-02-13T09:22:59.953Z,1033.48
2017-02-13T09:24:08.922Z,1033.48
2017-02-13T09:25:17.898Z,1033.47
2017-02-13T09:26:26.943Z,1033.46
2017-02-13T09:27:35.956Z,1033.45
2017-02-13T09:28:44.936Z,1033.45
2017-02-13T09:29:53.922Z,1033.48
2017-02-13T09:31:02.995Z,1033.46
2017-02-13T09:32:11.971Z,1033.44
2017-02-13T09:33:21.137Z,1033.5
2017-02-13T09:34:30.123Z,1033.51
2017-02-13T09:35:39.895Z,1033.51
2017-02-13T09:36:51.341Z,1033.58
2017-02-13T09:38:00.326Z,1033.56
2017-02-13T09:39:09.297Z,1033.58
2017-02-13T09:40:18.294Z,1033.58
2017-02-13T09:41:27.286Z,1033.66
2017-02-13T09:42:36.358Z,1033.61
2017-02-13T09:43:45.361Z,1033.65
2017-02-13T09:44:54.353Z,1033.67
2017-02-13T09:46:03.322Z,1033.7
2017-02-13T09:47:12.727Z,1033.7
2017-02-13T09:48:21.798Z,1033.73
2017-02-13T09:49:30.787Z,1033.76
2017-02-13T09:50:39.783Z,1033.75
2017-02-13T09:51:48.847Z,1033.77
2017-02-13T09:52:58.232Z,1033.75
2017-02-13T09:54:07.215Z,1033.77
2017-02-13T09:55:16.285Z,1033.79
2017-02-13T09:56:27.037Z,1033.85
2017-02-13T09:57:36.323Z,1033.76
2017-02-13T09:58:45.772Z,1033.76
2017-02-13T09:59:54.804Z,1033.75
2017-02-13T10:01:04.137Z,1033.77
2017-02-13T10:02:13.436Z,1033.74
2017-02-13T10:03:23.046Z,1033.74
2017-02-13T10:04:32.363Z,1033.76
2017-02-13T10:05:41.701Z,1033.7
2017-02-13T10:06:50.959Z,1033.7
2017-02-13T10:08:00.051Z,1033.71
2017-02-13T10:09:09.808Z,1033.66
2017-02-13T10:10:19.497Z,1033.71
2017-02-13T10:11:29.080Z,1033.71
2017-02-13T10:12:38.493Z,1033.68
2017-02-13T10:13:48.408Z,1033.65
2017-02-13T10:14:57.445Z,1033.62
2017-02-13T10:16:06.991Z,1033.64
2017-02-13T10:17:16.151Z,1033.57
2017-02-13T10:18:25.147Z,1033.55
2017-02-13T10:19:34.134Z,1033.45
2017-02-13T10:20:43.973Z,1033.46
2017-02-13T10:21:53.778Z,1033.45
2017-02-13T10:23:03.701Z,1033.48
2017-02-13T10:24:13.092Z,1033.46
2017-02-13T10:25:22.717Z,1033.47
2017-02-13T10:26:33.221Z,1033.46
2017-02-13T10:27:42.906Z,1033.42
2017-02-13T10:28:52.298Z,1033.36
2017-02-13T10:30:01.277Z,1033.36
2017-02-13T10:31:10.246Z,1033.31
2017-02-13T10:32:19.639Z,1033.33
2017-02-13T10:33:28.616Z,1033.32
2017-02-13T10:34:37.585Z,1033.32
2017-02-13T10:35:46.571Z,1033.34
2017-02-13T10:36:55.634Z,1033.32
2017-02-13T10:38:04.615Z,1033.3
2017-02-13T10:39:13.588Z,1033.35
2017-02-13T10:40:22.976Z,1033.37
2017-02-13T10:41:31.953Z,1033.38
2017-02-13T10:42:40.929Z,1033.42
2017-02-13T10:43:50.007Z,1033.4
2017-02-13T10:44:58.989Z,1033.4
2017-02-13T10:46:07.962Z,1033.39
2017-02-13T10:47:17.035Z,1033.43
2017-02-13T10:48:26.092Z,1033.4
2017-02-13T10:49:35.071Z,1033.36
2017-02-13T10:50:44.064Z,1033.38
2017-02-13T10:51:53.039Z,1033.4
2017-02-13T10:53:02.421Z,1033.42
2017-02-13T10:54:11.510Z,1033.33
2017-02-13T10:55:20.492Z,1033.32
2017-02-13T10:56:29.465Z,1033.37
2017-02-13T10:57:38.434Z,1033.37
2017-02-13T10:58:47.435Z,1033.32
2017-02-13T10:59:56.406Z,1033.26
2017-02-13T11:01:05.384Z,1033.2
2017-02-13T11:02:14.363Z,1033.25
2017-02-13T11:03:23.339Z,1033.16
2017-02-13T11:04:32.334Z,1033.21
2017-02-13T11:05:41.335Z,1033.17
2017-02-13T11:06:50.320Z,1033.19
2017-02-13T11:07:59.390Z,1033.15
2017-02-13T11:09:08.372Z,1033.09
2017-02-13T11:10:17.768Z,1033.11
2017-02-13T11:11:26.762Z,1033.06
2017-02-13T11:12:35.745Z,1033.07
2017-02-13T11:13:44.739Z,1033
2017-02-13T11:14:53.714Z,1033.05
2017-02-13T11:16:03.291Z,1033.02
2017-02-13T11:17:12.286Z,1032.97
2017-02-13T11:18:21.278Z,1033
2017-02-13T11:19:30.267Z,1032.99
2017-02-13T11:20:39.244Z,1032.96
2017-02-13T11:21:48.220Z,1032.97
2017-02-13T11:22:57.205Z,1032.92
2017-02-13T11:24:06.190Z,1032.93
2017-02-13T11:25:15.178Z,1032.91
2017-02-13T11:26:24.150Z,1032.85
2017-02-13T11:27:33.120Z,1032.8
2017-02-13T11:28:42.110Z,1032.83
2017-02-13T11:29:51.112Z,1032.81
2017-02-13T11:31:00.614Z,1032.77
2017-02-13T11:32:09.616Z,1032.74
2017-02-13T11:33:19.033Z,1032.71
2017-02-13T11:34:28.110Z,1032.68
2017-02-13T11:35:37.183Z,1032.67
2017-02-13T11:36:46.265Z,1032.63
2017-02-13T11:37:55.236Z,1032.63
2017-02-13T11:39:04.626Z,1032.6
2017-02-13T11:40:13.620Z,1032.67
2017-02-13T11:41:22.623Z,1032.64
2017-02-13T11:42:31.611Z,1032.69
2017-02-13T11:43:40.608Z,1032.62
2017-02-13T11:44:49.577Z,1032.59
2017-02-13T11:45:59.055Z,1032.64
2017-02-13T11:47:08.041Z,1032.6
2017-02-13T11:48:17.022Z,1032.59
2017-02-13T11:49:26.001Z,1032.58
2017-02-13T11:50:34.991Z,1032.58
2017-02-13T11:51:43.985Z,1032.54
2017-02-13T11:52:52.956Z,1032.54
2017-02-13T11:54:01.935Z,1032.57
2017-02-13T11:55:10.944Z,1032.55
2017-02-13T11:56:19.917Z,1032.54
2017-02-13T11:57:28.924Z,1032.45
2017-02-13T11:58:38.011Z,1032.48
2017-02-13T11:59:47.011Z,1032.45
2017-02-13T12:00:56.081Z,1032.43
2017-02-13T12:02:05.072Z,1032.43
2017-02-13T12:03:14.053Z,1032.41
2017-02-13T12:04:23.037Z,1032.39
2017-02-13T12:05:32.052Z,1032.39
2017-02-13T12:06:41.064Z,1032.36
2017-02-13T12:07:50.227Z,1032.36
2017-02-13T12:08:59.219Z,1032.36
2017-02-13T12:10:08.204Z,1032.37
2017-02-13T12:11:17.183Z,1032.31
2017-02-13T12:12:26.258Z,1032.28
2017-02-13T12:13:35.356Z,1032.32
2017-02-13T12:14:44.346Z,1032.31
2017-02-13T12:15:53.338Z,1032.3
2017-02-13T12:17:02.424Z,1032.3
2017-02-13T12:18:11.412Z,1032.28
2017-02-13T12:19:20.388Z,1032.25
2017-02-13T12:20:29.368Z,1032.26
2017-02-13T12:21:38.549Z,1032.26
2017-02-13T12:22:47.534Z,1032.23
2017-02-13T12:23:56.548Z,1032.27
2017-02-13T12:25:05.549Z,1032.21
2017-02-13T12:26:14.531Z,1032.22
2017-02-13T12:27:23.526Z,1032.23
2017-02-13T12:28:32.524Z,1032.21
2017-02-13T12:29:41.605Z,1032.24
2017-02-13T12:30:50.739Z,1032.18
2017-02-13T12:32:00.829Z,1032.16
2017-02-13T12:33:09.847Z,1032.12
2017-02-13T12:34:18.817Z,1032.09
2017-02-13T12:35:28.317Z,1032.13
2017-02-13T12:36:37.294Z,1032.15
2017-02-13T12:37:46.380Z,1032.13
2017-02-13T12:38:55.538Z,1032.11
2017-02-13T12:40:04.555Z,1032.09
2017-02-13T12:41:13.537Z,1032.04
2017-02-13T12:42:22.533Z,1032.05
2017-02-13T12:43:31.736Z,1032.01
2017-02-13T12:45:31.444Z,1032.04
2017-02-13T12:46:40.843Z,1032.01
2017-02-13T12:47:49.939Z,1031.98
2017-02-13T12:48:58.935Z,1031.95
2017-02-13T12:50:07.917Z,1031.93
2017-02-13T12:51:16.884Z,1031.94
2017-02-13T12:52:25.864Z,1031.94
2017-02-13T12:53:35.160Z,1031.93
2017-02-13T12:54:44.983Z,1031.96
2017-02-13T12:55:54.677Z,1031.96
2017-02-13T12:57:03.752Z,1031.93
2017-02-13T12:58:13.552Z,1031.94
2017-02-13T12:59:22.626Z,1031.93
2017-02-13T13:00:31.610Z,1031.96
2017-02-13T13:01:40.656Z,1031.95
2017-02-13T13:02:50.155Z,1031.92
2017-02-13T13:03:59.140Z,1031.95
2017-02-13T13:05:08.116Z,1031.99
2017-02-13T13:06:17.119Z,1032.01
2017-02-13T13:07:26.120Z,1031.96
2017-02-13T13:08:35.105Z,1031.9
2017-02-13T13:09:44.103Z,1031.95
2017-02-13T13:10:53.735Z,1031.93
2017-02-13T13:12:02.706Z,1031.92
2017-02-13T13:13:11.687Z,1031.92
2017-02-13T13:14:20.672Z,1031.97
2017-02-13T13:15:29.653Z,1031.99
2017-02-13T13:16:38.634Z,1031.94
2017-02-13T13:17:47.638Z,1031.95
2017-02-13T13:18:56.627Z,1031.9
2017-02-13T13:20:05.632Z,1031.94
2017-02-13T13:21:15.228Z,1031.97
2017-02-13T13:22:24.227Z,1032
2017-02-13T13:23:33.306Z,1032
2017-02-13T13:24:42.321Z,1032.01
2017-02-13T13:25:51.392Z,1031.99
2017-02-13T13:27:00.942Z,1031.94
2017-02-13T13:28:10.733Z,1031.98
2017-02-13T13:29:20.476Z,1031.99
2017-02-13T13:30:29.877Z,1032.02
2017-02-13T13:31:39.461Z,1032.05
2017-02-13T13:32:49.040Z,1032.05
2017-02-13T13:33:58.683Z,1032.03
2017-02-13T13:35:07.659Z,1032.08
2017-02-13T13:36:17.140Z,1032.05
2017-02-13T13:37:26.233Z,1032.04
2017-02-13T13:38:35.216Z,1032.06
2017-02-13T13:39:44.212Z,1032.04
2017-02-13T13:40:53.914Z,1032.05
2017-02-13T13:42:02.932Z,1032.07
2017-02-13T13:43:15.011Z,1032.13
2017-02-13T13:44:25.876Z,1032.14
2017-02-13T13:45:35.370Z,1032.19
2017-02-13T13:46:45.243Z,1032.14
2017-02-13T13:47:54.583Z,1032.16
2017-02-13T13:49:03.570Z,1032.17
2017-02-13T13:50:13.126Z,1032.12
2017-02-13T13:51:22.737Z,1032.14
2017-02-13T13:52:32.425Z,1032.15
2017-02-13T13:53:42.009Z,1032.14
2017-02-13T13:54:50.984Z,1032.12
2017-02-13T13:55:59.963Z,1032.16
2017-02-13T13:57:08.977Z,1032.16
2017-02-13T13:58:18.085Z,1032.12
2017-02-13T13:59:27.152Z,1032.14
2017-02-13T14:00:36.131Z,1032.14
2017-02-13T14:01:45.127Z,1032.08
2017-02-13T14:02:54.184Z,1032.09